Leadville, CO (80429)

8:57 AM MDT on August 28, 2016 (GMT -0600)
Lake County | | Change Station

Elev 9928 ft 39.23 °N, 106.32 °W | Updated 4 minutes ago

Light Rain
Light Rain
46 °F
Feels Like 46 °F
N
0
Wind Variable Wind from North

Today
High -- | Low -- °F
--% Chance of Precip.
Yesterday
High -- | Low -- °F
Precip. -- in
Pressure 30.10 in
Visibility 10.0 miles
Clouds Mostly Cloudy 6000 ft
Overcast 7500 ft
Dew Point 38 °F
Humidity 73%
Rainfall 0.00 in
Snow Depth Not available.
6:30 AM 7:40 PM
Waning Crescent, 15% visible
METAR KLXV 281453Z AUTO 00000KT 10SM -RA BKN060 OVC075 08/03 A3049 RMK AO2 RAB50 SLP191 P0000 60000 T00780033 53009 TSNO
Pressure 30.10 in
Visibility 10.0 miles
Clouds Mostly Cloudy 6000 ft
Overcast 7500 ft
Dew Point 38 °F
Humidity 73%
Rainfall 0.00 in
Snow Depth Not available.
6:30 AM 7:40 PM
Waning Crescent, 15% visible
METAR KLXV 281453Z AUTO 00000KT 10SM -RA BKN060 OVC075 08/03 A3049 RMK AO2 RAB50 SLP191 P0000 60000 T00780033 53009 TSNO

10-Day Weather Forecast

Almanac

Astronomy

Aug. 28, 2016 Rise Set
Actual Time
Civil Twilight
Nautical Twilight
Astronomical Twilight
Moon
Length of Visible Light
Length of Day
Tomorrow will be .
, % of the Moon is Illuminated

Today's Extremes

State Highs State Lows

Community

WunderPhotos

Upload Photos

1,935,579 photos uploaded!

WunderBlog® & News

Nearby

Air Quality

  Air Quality AQ Index Pollutant
Not available.

Snow Depth

Station Depth Elevation

Earthquake Activity

City Distance Mag. Time & Date
Minimum magnitude displayed is 2.5.

Coastal Water Temperatures

Place Temperature

Stations

Nearby Weather Stations

Station Location Temp. Windchill Dew Point Humidity Wind Precip. Elev Updated Type
                   

Watches & Warnings

There are currently no watches in effect.